Time;durP1;ratioP1;P1;durP2;ratioP2;P2;SDS_P1;SDS_P2;PMS_P1;PMS_P2;Temp;Humidity;BMP_temperature;BMP_pressure;BME280_temperature;BME280_humidity;BME280_pressure;Samples;Min_cycle;Max_cycle;Signal;HPM_P1;HPM_P2
2022/03/12 00:00:36;;;;;;;;;;;;;;;9.72;40.13;101277.03;5099345;28;19923;-80
2022/03/12 00:03:02;;;;;;;;;;;;;;;9.73;40.06;101279.66;5093729;27;19924;-79
2022/03/12 00:05:29;;;;;;;;;;;;;;;9.91;39.86;101282.03;5101012;28;19922;-79
2022/03/12 00:07:54;;;;;;;;;;;;;;;9.87;39.84;101278.47;5104533;28;19938;-79
2022/03/12 00:10:23;;;;;;;;;;;;;;;9.80;39.96;101288.44;5103497;28;20289;-79
2022/03/12 00:12:50;;;;;;;;;;;;;;;9.78;40.19;101285.84;5104728;28;20010;-79
2022/03/12 00:15:15;;;;;;;;;;;;;;;9.81;39.92;101279.94;5103847;28;19928;-79
2022/03/12 00:17:45;;;;;;;;;;;;;;;9.82;39.92;101281.66;5105967;28;20016;-79
2022/03/12 00:20:12;;;;;;;;;;;;;;;9.76;40.40;101289.16;5105732;28;19926;-79
2022/03/12 00:22:41;;;;;;;;;;;;;;;9.92;40.05;101288.91;5104923;27;20052;-80
2022/03/12 00:25:07;;;;;;;;;;;;;;;9.85;40.08;101287.81;5103955;28;19934;-79
2022/03/12 00:27:32;;;;;;;;;;;;;;;9.80;40.30;101293.59;5105080;28;19926;-79
2022/03/12 00:29:58;;;;;;;;;;;;;;;9.71;40.27;101289.00;5102731;28;19920;-80
2022/03/12 00:32:23;;;;;;;;;;;;;;;9.70;40.67;101288.91;5102971;28;20006;-79
2022/03/12 00:34:49;;;;;;;;;;;;;;;9.80;40.37;101302.16;5100688;28;19931;-79
2022/03/12 00:37:14;;;;;;;;;;;;;;;9.69;40.65;101300.88;5103067;28;19916;-79
2022/03/12 00:39:41;;;;;;;;;;;;;;;9.69;40.65;101295.75;5094958;28;19927;-79
2022/03/12 00:42:07;;;;;;;;;;;;;;;9.73;40.82;101302.75;5105454;28;19928;-79
2022/03/12 00:44:32;;;;;;;;;;;;;;;9.79;40.66;101307.25;5104947;28;19923;-79
2022/03/12 00:46:57;;;;;;;;;;;;;;;9.73;40.90;101307.03;5104545;28;20350;-81
2022/03/12 00:49:23;;;;;;;;;;;;;;;9.71;40.98;101314.69;5099571;28;19930;-79
2022/03/12 00:51:49;;;;;;;;;;;;;;;9.66;41.08;101318.75;5104026;28;19916;-79
2022/03/12 00:54:14;;;;;;;;;;;;;;;9.66;41.33;101316.19;5106355;28;20277;-80
2022/03/12 00:56:39;;;;;;;;;;;;;;;9.63;41.62;101314.34;5101395;27;19938;-78
2022/03/12 00:59:05;;;;;;;;;;;;;;;9.73;41.36;101307.03;5101707;28;19939;-78
2022/03/12 01:01:30;;;;;;;;;;;;;;;9.55;42.00;101308.06;5103761;28;19931;-79
2022/03/12 01:03:55;;;;;;;;;;;;;;;9.50;42.27;101313.81;5102622;28;19927;-79
2022/03/12 01:06:22;;;;;;;;;;;;;;;9.56;41.85;101308.94;5103628;28;19922;-78
2022/03/12 01:08:47;;;;;;;;;;;;;;;9.52;42.37;101323.31;5096975;28;19920;-79
2022/03/12 01:11:12;;;;;;;;;;;;;;;9.52;42.44;101325.88;5106074;28;19930;-79
2022/03/12 01:13:38;;;;;;;;;;;;;;;9.49;42.83;101318.09;5102757;28;20369;-79
2022/03/12 01:16:05;;;;;;;;;;;;;;;9.58;42.61;101317.56;5101852;28;19926;-80
2022/03/12 01:18:30;;;;;;;;;;;;;;;9.60;42.63;101331.34;5105330;28;19919;-79
2022/03/12 01:21:05;;;;;;;;;;;;;;;9.59;42.83;101320.22;5102685;28;19920;-79
2022/03/12 01:23:31;;;;;;;;;;;;;;;9.52;43.02;101319.88;5101607;28;20390;-79
2022/03/12 01:25:56;;;;;;;;;;;;;;;9.54;43.57;101326.84;5104688;28;20085;-79
2022/03/12 01:28:22;;;;;;;;;;;;;;;9.52;44.25;101328.44;5102032;28;20630;-79
2022/03/12 01:30:47;;;;;;;;;;;;;;;9.39;45.33;101326.22;5102075;28;20018;-79
2022/03/12 01:33:13;;;;;;;;;;;;;;;9.25;46.73;101330.81;5102628;28;19950;-79
2022/03/12 01:35:38;;;;;;;;;;;;;;;9.03;47.33;101334.16;5102009;28;20010;-79
2022/03/12 01:38:04;;;;;;;;;;;;;;;8.64;51.09;101337.63;5102835;28;19973;-79
2022/03/12 01:40:30;;;;;;;;;;;;;;;8.57;50.49;101342.47;5102745;28;20412;-79
2022/03/12 01:42:55;;;;;;;;;;;;;;;8.57;51.28;101328.78;5097535;28;19924;-78
2022/03/12 01:45:27;;;;;;;;;;;;;;;8.44;52.16;101334.19;5100506;28;19924;-78
2022/03/12 01:47:55;;;;;;;;;;;;;;;8.31;52.75;101338.75;5101922;28;19924;-79
2022/03/12 01:50:21;;;;;;;;;;;;;;;8.14;53.48;101347.34;5103197;28;19927;-78
2022/03/12 01:52:47;;;;;;;;;;;;;;;8.10;54.43;101345.44;5100050;28;19916;-79
2022/03/12 01:55:13;;;;;;;;;;;;;;;8.16;52.91;101347.41;5100926;28;19943;-79
2022/03/12 01:57:38;;;;;;;;;;;;;;;8.06;55.92;101354.66;5103653;28;19924;-78
2022/03/12 02:00:04;;;;;;;;;;;;;;;7.80;59.10;101356.00;5104712;28;19931;-79
2022/03/12 02:02:29;;;;;;;;;;;;;;;7.69;58.15;101351.19;5100650;28;19975;-78
2022/03/12 02:04:55;;;;;;;;;;;;;;;7.49;60.16;101355.38;5101661;28;19920;-79
2022/03/12 02:07:23;;;;;;;;;;;;;;;7.39;60.62;101355.72;5099108;28;19928;-79
2022/03/12 02:09:49;;;;;;;;;;;;;;;7.46;59.74;101347.53;5100729;28;20255;-79
2022/03/12 02:12:14;;;;;;;;;;;;;;;7.62;58.06;101344.03;5098320;28;20631;-78
2022/03/12 02:14:40;;;;;;;;;;;;;;;7.71;58.66;101341.94;5117686;28;19927;-79
2022/03/12 02:17:08;;;;;;;;;;;;;;;7.86;58.00;101341.75;5092832;28;19920;-79
2022/03/12 02:19:35;;;;;;;;;;;;;;;8.01;57.06;101348.47;5103749;28;19927;-79
2022/03/12 02:22:02;;;;;;;;;;;;;;;8.14;57.68;101347.34;5101993;28;19930;-79
2022/03/12 02:24:29;;;;;;;;;;;;;;;8.20;56.62;101341.63;5103027;28;19961;-79
2022/03/12 02:26:59;;;;;;;;;;;;;;;8.31;57.27;101346.44;5107194;28;20315;-78
2022/03/12 02:29:25;;;;;;;;;;;;;;;8.30;56.59;101342.09;5105467;28;20013;-79
2022/03/12 02:31:54;;;;;;;;;;;;;;;8.31;57.01;101342.97;5106737;28;20010;-78
2022/03/12 02:34:22;;;;;;;;;;;;;;;8.34;56.46;101343.97;5105947;28;19920;-78
2022/03/12 02:36:49;;;;;;;;;;;;;;;8.41;56.30;101342.59;5105531;28;19924;-79
2022/03/12 02:39:15;;;;;;;;;;;;;;;8.46;54.84;101341.13;5106135;28;19958;-79
2022/03/12 02:41:40;;;;;;;;;;;;;;;8.50;55.91;101348.16;5108426;28;19943;-79
2022/03/12 02:44:07;;;;;;;;;;;;;;;8.59;54.43;101348.53;5105278;28;19978;-78
2022/03/12 02:46:34;;;;;;;;;;;;;;;8.70;54.86;101355.81;5105618;28;20370;-79
2022/03/12 02:48:59;;;;;;;;;;;;;;;8.65;54.04;101357.31;5107263;27;19922;-79
2022/03/12 02:51:26;;;;;;;;;;;;;;;8.57;54.22;101350.16;5094053;27;20027;-79
2022/03/12 02:53:54;;;;;;;;;;;;;;;8.69;53.94;101359.22;5103788;27;19955;-79
2022/03/12 02:56:19;;;;;;;;;;;;;;;8.65;54.04;101358.19;5104588;28;19920;-79
2022/03/12 02:58:44;;;;;;;;;;;;;;;8.71;53.26;101363.56;5105927;28;19916;-79
2022/03/12 03:01:14;;;;;;;;;;;;;;;8.69;53.45;101365.22;5102691;28;19928;-79
2022/03/12 03:03:41;;;;;;;;;;;;;;;8.68;53.71;101368.59;5107766;28;19920;-79
2022/03/12 03:06:07;;;;;;;;;;;;;;;8.73;53.40;101368.75;5104867;28;19923;-79
2022/03/12 03:08:34;;;;;;;;;;;;;;;8.72;53.18;101367.00;5103115;28;19965;-79
2022/03/12 03:11:01;;;;;;;;;;;;;;;8.88;52.82;101372.00;5106615;28;19924;-79
2022/03/12 03:13:34;;;;;;;;;;;;;;;8.76;52.92;101367.22;5105806;28;20373;-79
2022/03/12 03:16:08;;;;;;;;;;;;;;;8.78;52.61;101367.28;5103945;28;20290;-79
2022/03/12 03:18:35;;;;;;;;;;;;;;;8.68;52.84;101371.16;5103993;28;20015;-79
2022/03/12 03:21:01;;;;;;;;;;;;;;;8.67;52.89;101366.81;5103587;28;19930;-79
2022/03/12 03:23:27;;;;;;;;;;;;;;;8.72;52.63;101372.16;5101865;28;19919;-79
2022/03/12 03:25:53;;;;;;;;;;;;;;;8.56;53.12;101381.75;5099976;28;19919;-79
2022/03/12 03:28:18;;;;;;;;;;;;;;;8.57;53.55;101377.50;5106612;28;20010;-79
2022/03/12 03:30:44;;;;;;;;;;;;;;;8.34;53.70;101381.53;5099981;28;19962;-78
2022/03/12 03:33:10;;;;;;;;;;;;;;;8.22;53.86;101381.00;5103282;28;19968;-78
2022/03/12 03:35:39;;;;;;;;;;;;;;;8.07;54.61;101386.28;5103413;28;19923;-78
2022/03/12 03:38:11;;;;;;;;;;;;;;;7.98;55.26;101385.84;5103196;28;20072;-79
2022/03/12 03:40:37;;;;;;;;;;;;;;;7.98;54.95;101389.28;5103321;28;19916;-79
2022/03/12 03:43:12;;;;;;;;;;;;;;;7.85;54.32;101388.66;5103680;28;20983;-79
2022/03/12 03:45:37;;;;;;;;;;;;;;;7.72;56.58;101400.00;5102060;28;19953;-79
2022/03/12 03:48:03;;;;;;;;;;;;;;;7.64;55.52;101398.72;5105446;28;19923;-79
2022/03/12 03:50:28;;;;;;;;;;;;;;;7.71;55.35;101403.38;5103739;28;19961;-78
2022/03/12 03:52:58;;;;;;;;;;;;;;;7.58;56.67;101406.97;5106523;28;19920;-79
2022/03/12 03:55:25;;;;;;;;;;;;;;;7.51;56.96;101403.25;5106001;28;19999;-79
2022/03/12 03:57:53;;;;;;;;;;;;;;;7.45;58.53;101407.19;5101655;28;19964;-79
2022/03/12 04:00:21;;;;;;;;;;;;;;;7.43;57.95;101411.38;5101816;27;20369;-78
2022/03/12 04:02:47;;;;;;;;;;;;;;;7.39;59.35;101412.88;5102613;28;19919;-78
2022/03/12 04:05:12;;;;;;;;;;;;;;;7.41;58.94;101413.84;5103947;28;19928;-79
2022/03/12 04:07:37;;;;;;;;;;;;;;;7.37;59.21;101414.50;5105273;28;19920;-78
2022/03/12 04:10:03;;;;;;;;;;;;;;;7.36;57.28;101411.88;5104577;28;19931;-78
2022/03/12 04:12:29;;;;;;;;;;;;;;;7.27;58.59;101417.38;5105168;28;19931;-79
2022/03/12 04:14:54;;;;;;;;;;;;;;;7.23;58.87;101429.16;5106342;28;20312;-78
2022/03/12 04:17:21;;;;;;;;;;;;;;;7.28;59.42;101429.41;5101416;28;19920;-78
2022/03/12 04:19:47;;;;;;;;;;;;;;;7.18;60.76;101427.16;5103614;28;20029;-79
2022/03/12 04:22:13;;;;;;;;;;;;;;;7.16;61.12;101431.31;5100558;28;19986;-78
2022/03/12 04:24:38;;;;;;;;;;;;;;;7.11;63.43;101426.00;5103844;28;20144;-78
2022/03/12 04:27:03;;;;;;;;;;;;;;;7.13;63.15;101432.03;5099002;28;19934;-78
2022/03/12 04:29:28;;;;;;;;;;;;;;;7.10;63.71;101425.88;5102015;28;19923;-79
2022/03/12 04:31:54;;;;;;;;;;;;;;;7.11;66.10;101430.22;5098136;28;19973;-79
2022/03/12 04:34:20;;;;;;;;;;;;;;;7.07;63.35;101433.41;5103504;28;19930;-78
2022/03/12 04:36:46;;;;;;;;;;;;;;;7.02;62.31;101425.50;5105724;28;19920;-79
2022/03/12 04:39:12;;;;;;;;;;;;;;;7.01;65.04;101436.53;5103865;28;19924;-77
2022/03/12 04:41:40;;;;;;;;;;;;;;;6.95;65.46;101429.41;5102882;28;20370;-78
2022/03/12 04:44:06;;;;;;;;;;;;;;;7.00;66.52;101434.78;5102893;28;19923;-78
2022/03/12 04:46:32;;;;;;;;;;;;;;;6.97;68.09;101429.50;5097921;28;20370;-78
2022/03/12 04:48:57;;;;;;;;;;;;;;;7.02;67.04;101437.41;5104892;28;19931;-79
2022/03/12 04:51:23;;;;;;;;;;;;;;;7.02;65.39;101439.97;5102623;28;19928;-79
2022/03/12 04:53:48;;;;;;;;;;;;;;;6.93;67.18;101431.03;5103894;28;19924;-79
2022/03/12 04:56:13;;;;;;;;;;;;;;;6.93;66.14;101441.25;5102553;28;19969;-79
2022/03/12 04:58:39;;;;;;;;;;;;;;;6.90;68.34;101430.84;5106000;28;19919;-79
2022/03/12 05:01:07;;;;;;;;;;;;;;;6.89;69.94;101436.78;5101319;28;19919;-78
2022/03/12 05:03:32;;;;;;;;;;;;;;;6.92;67.21;101444.63;5105571;28;21289;-79
2022/03/12 05:05:59;;;;;;;;;;;;;;;6.91;70.12;101447.94;5101139;28;19916;-79
2022/03/12 05:08:26;;;;;;;;;;;;;;;6.93;71.29;101448.94;5098250;28;20118;-79
2022/03/12 05:10:53;;;;;;;;;;;;;;;6.96;66.72;101446.50;5103775;28;19926;-79
2022/03/12 05:13:27;;;;;;;;;;;;;;;6.95;70.21;101449.88;5103762;28;20366;-79
2022/03/12 05:15:57;;;;;;;;;;;;;;;6.93;68.76;101448.94;5104204;28;19999;-79
2022/03/12 05:18:23;;;;;;;;;;;;;;;6.92;71.44;101448.84;5098665;28;19921;-79
2022/03/12 05:20:49;;;;;;;;;;;;;;;6.92;71.62;101452.28;5098428;28;19926;-79
2022/03/12 05:23:15;;;;;;;;;;;;;;;6.86;73.22;101446.84;5102128;28;19916;-79
2022/03/12 05:25:41;;;;;;;;;;;;;;;6.91;71.35;101455.63;5100049;28;19916;-79
2022/03/12 05:28:08;;;;;;;;;;;;;;;6.84;73.79;101457.78;5103371;28;19920;-79
2022/03/12 05:30:34;;;;;;;;;;;;;;;6.91;69.63;101468.41;5100972;28;21354;-80
2022/03/12 05:32:59;;;;;;;;;;;;;;;6.83;72.06;101467.13;5105840;28;20083;-80
2022/03/12 05:35:25;;;;;;;;;;;;;;;7.02;69.88;101475.75;5101568;28;19932;-79
2022/03/12 05:37:51;;;;;;;;;;;;;;;6.88;72.34;101480.16;5103670;28;19916;-80
2022/03/12 05:40:19;;;;;;;;;;;;;;;6.81;74.62;101480.66;5098434;28;19966;-79
2022/03/12 05:42:46;;;;;;;;;;;;;;;6.79;74.62;101489.88;5099830;28;20434;-80
2022/03/12 05:45:13;;;;;;;;;;;;;;;6.76;71.90;101488.06;5102958;28;19923;-79
2022/03/12 05:47:39;;;;;;;;;;;;;;;6.75;72.10;101493.97;5099925;28;19923;-78
2022/03/12 05:50:09;;;;;;;;;;;;;;;6.71;75.73;101492.91;5104893;28;19920;-79
2022/03/12 05:52:34;;;;;;;;;;;;;;;6.76;72.20;101487.19;5103892;28;19943;-79
2022/03/12 05:55:00;;;;;;;;;;;;;;;6.71;74.58;101489.50;5121056;28;19943;-79
2022/03/12 05:57:25;;;;;;;;;;;;;;;6.72;76.90;101496.34;5120451;28;19916;-78
2022/03/12 05:59:50;;;;;;;;;;;;;;;6.69;75.66;101488.53;5109831;28;19927;-79
2022/03/12 06:02:16;;;;;;;;;;;;;;;6.70;74.58;101500.50;5103565;28;19931;-79
2022/03/12 06:04:42;;;;;;;;;;;;;;;6.63;74.78;101500.97;5106480;28;19981;-78
2022/03/12 06:07:09;;;;;;;;;;;;;;;6.56;75.44;101499.78;5102101;28;19923;-79
2022/03/12 06:09:34;;;;;;;;;;;;;;;6.56;76.55;101502.34;5103682;28;19931;-79
2022/03/12 06:12:01;;;;;;;;;;;;;;;6.54;74.70;101498.78;5104168;28;19919;-79
2022/03/12 06:14:26;;;;;;;;;;;;;;;6.56;72.84;101498.91;5100570;28;19924;-79
2022/03/12 06:16:52;;;;;;;;;;;;;;;6.54;78.16;101501.34;5102617;28;19920;-79
2022/03/12 06:19:21;;;;;;;;;;;;;;;6.58;76.04;101497.28;5104763;28;19923;-79
2022/03/12 06:21:47;;;;;;;;;;;;;;;6.57;76.01;101498.97;5103055;28;20023;-79
2022/03/12 06:24:14;;;;;;;;;;;;;;;6.68;74.63;101500.44;5100297;28;19923;-79
2022/03/12 06:26:40;;;;;;;;;;;;;;;6.69;77.98;101511.53;5101282;28;20368;-79
2022/03/12 06:29:09;;;;;;;;;;;;;;;6.72;77.08;101509.13;5103226;28;19943;-78
2022/03/12 06:31:34;;;;;;;;;;;;;;;6.79;74.64;101508.66;5101747;28;19924;-79
2022/03/12 06:34:00;;;;;;;;;;;;;;;6.89;75.99;101516.03;5103551;28;19934;-78
2022/03/12 06:36:26;;;;;;;;;;;;;;;6.93;74.20;101522.19;5100978;28;19920;-79
2022/03/12 06:38:52;;;;;;;;;;;;;;;6.96;74.83;101523.22;5097053;28;20758;-79
2022/03/12 06:41:20;;;;;;;;;;;;;;;7.07;75.68;101528.03;5077906;28;19927;-78
2022/03/12 06:43:47;;;;;;;;;;;;;;;7.12;76.27;101519.81;5099189;28;20405;-79
2022/03/12 06:46:15;;;;;;;;;;;;;;;7.21;75.58;101520.28;5101062;28;19927;-79
2022/03/12 06:48:42;;;;;;;;;;;;;;;7.31;75.80;101525.88;5093376;28;19963;-78
2022/03/12 06:51:07;;;;;;;;;;;;;;;7.39;73.84;101529.69;5089763;28;19938;-79
2022/03/12 06:53:33;;;;;;;;;;;;;;;7.51;73.72;101531.19;5097889;28;19928;-79
2022/03/12 06:55:58;;;;;;;;;;;;;;;7.58;75.63;101534.06;5097142;28;19920;-79
2022/03/12 06:58:25;;;;;;;;;;;;;;;7.71;75.12;101541.59;5099460;28;19930;-79
2022/03/12 07:00:50;;;;;;;;;;;;;;;7.89;72.42;101542.50;5095355;28;19927;-79
2022/03/12 07:03:15;;;;;;;;;;;;;;;8.00;74.77;101546.44;5098862;28;19923;-79
2022/03/12 07:08:32;;;;;;;;;;;;;;;8.46;72.67;101551.28;5096787;28;19924;-79
2022/03/12 07:10:57;;;;;;;;;;;;;;;8.54;73.03;101551.63;5100953;28;19924;-78
2022/03/12 07:13:23;;;;;;;;;;;;;;;8.59;71.99;101561.31;5100500;28;20478;-80
2022/03/12 07:15:49;;;;;;;;;;;;;;;8.70;73.38;101559.25;5101397;28;20387;-79
2022/03/12 07:18:15;;;;;;;;;;;;;;;8.82;72.72;101553.81;5100955;28;20026;-79
2022/03/12 07:20:40;;;;;;;;;;;;;;;8.95;71.50;101548.44;5098071;28;20783;-77
2022/03/12 07:23:05;;;;;;;;;;;;;;;9.06;71.81;101560.06;5094306;28;19927;-77
2022/03/12 07:25:31;;;;;;;;;;;;;;;9.10;71.11;101554.28;5102061;28;19924;-78
2022/03/12 07:27:56;;;;;;;;;;;;;;;9.02;71.30;101555.59;5105364;28;19927;-78
2022/03/12 07:30:22;;;;;;;;;;;;;;;9.12;71.67;101557.78;5104299;28;19926;-79
2022/03/12 07:32:48;;;;;;;;;;;;;;;9.18;71.44;101564.88;5081115;28;20381;-78
2022/03/12 07:35:15;;;;;;;;;;;;;;;9.31;70.54;101564.59;5105297;28;19920;-79
2022/03/12 07:37:40;;;;;;;;;;;;;;;9.59;69.99;101574.41;5101429;28;20008;-78
2022/03/12 07:43:13;;;;;;;;;;;;;;;11.18;66.65;101583.38;5100351;28;19980;-78
2022/03/12 07:45:38;;;;;;;;;;;;;;;11.79;64.53;101580.41;5098984;28;20320;-79
2022/03/12 07:48:05;;;;;;;;;;;;;;;12.12;63.84;101584.97;5095938;28;19928;-78
2022/03/12 07:50:31;;;;;;;;;;;;;;;12.47;62.41;101593.00;5080997;28;19977;-78
2022/03/12 07:52:57;;;;;;;;;;;;;;;12.98;61.07;101587.69;5102221;28;21101;-79
2022/03/12 07:55:23;;;;;;;;;;;;;;;13.47;60.06;101592.59;5098765;28;19950;-79
2022/03/12 07:57:48;;;;;;;;;;;;;;;13.99;58.14;101580.19;5099647;28;20382;-79
2022/03/12 08:00:14;;;;;;;;;;;;;;;14.65;56.84;101582.69;5104578;28;19916;-78
2022/03/12 08:02:40;;;;;;;;;;;;;;;15.07;55.24;101581.88;5099219;28;20297;-79
2022/03/12 08:05:06;;;;;;;;;;;;;;;15.29;53.24;101586.66;5103241;28;19965;-79
2022/03/12 08:07:33;;;;;;;;;;;;;;;15.19;53.02;101593.38;5105780;28;19962;-79
2022/03/12 08:09:59;;;;;;;;;;;;;;;14.99;53.80;101592.09;5104760;28;20369;-79
2022/03/12 08:12:34;;;;;;;;;;;;;;;14.97;53.97;101593.75;5100429;28;20405;-79
2022/03/12 08:15:02;;;;;;;;;;;;;;;15.15;53.42;101603.63;5104805;28;20357;-78
2022/03/12 08:17:28;;;;;;;;;;;;;;;15.47;52.10;101601.69;5101668;28;20561;-76
2022/03/12 08:19:54;;;;;;;;;;;;;;;15.60;52.94;101602.81;5103249;28;19962;-78
2022/03/12 08:22:20;;;;;;;;;;;;;;;15.80;52.52;101604.09;5105568;28;20378;-76
2022/03/12 08:24:46;;;;;;;;;;;;;;;16.20;50.59;101603.09;5101461;28;19978;-77
2022/03/12 08:27:14;;;;;;;;;;;;;;;16.53;50.31;101613.13;5116862;28;19915;-77
2022/03/12 08:29:39;;;;;;;;;;;;;;;17.12;48.88;101604.47;5113623;28;21070;-77
2022/03/12 08:32:07;;;;;;;;;;;;;;;17.31;47.45;101602.97;5119858;28;19961;-76
2022/03/12 08:34:32;;;;;;;;;;;;;;;17.35;46.73;101621.25;5103024;27;19923;-78
2022/03/12 08:36:58;;;;;;;;;;;;;;;17.38;46.90;101623.00;5104086;28;19920;-78
2022/03/12 08:39:23;;;;;;;;;;;;;;;17.45;47.81;101618.72;5104995;28;20331;-79
2022/03/12 08:41:48;;;;;;;;;;;;;;;17.64;48.09;101625.88;5102862;28;19928;-77
2022/03/12 08:44:13;;;;;;;;;;;;;;;18.23;45.02;101628.25;5104230;28;20088;-77
2022/03/12 08:46:42;;;;;;;;;;;;;;;18.80;46.59;101626.09;5103867;28;20323;-78
2022/03/12 08:49:08;;;;;;;;;;;;;;;19.47;41.98;101631.66;5104205;28;19930;-78
2022/03/12 08:51:33;;;;;;;;;;;;;;;19.08;42.61;101627.16;5100292;28;19924;-77
2022/03/12 08:53:58;;;;;;;;;;;;;;;19.12;44.98;101621.97;5100287;28;20401;-79
2022/03/12 08:56:23;;;;;;;;;;;;;;;19.36;44.44;101621.19;5102579;28;20030;-79
2022/03/12 08:58:49;;;;;;;;;;;;;;;19.47;43.14;101631.66;5103285;28;20283;-78
2022/03/12 09:01:15;;;;;;;;;;;;;;;19.64;43.49;101635.22;5104749;28;19928;-78
2022/03/12 09:03:41;;;;;;;;;;;;;;;19.92;42.60;101632.69;5100379;28;19977;-79
2022/03/12 09:06:07;;;;;;;;;;;;;;;19.83;41.33;101637.00;5103282;28;20441;-79
2022/03/12 09:08:33;;;;;;;;;;;;;;;19.44;41.89;101637.75;5101279;27;19954;-79
2022/03/12 09:10:59;;;;;;;;;;;;;;;18.70;42.86;101643.41;5106190;27;20326;-79
2022/03/12 09:13:24;;;;;;;;;;;;;;;18.46;43.93;101639.72;5105350;28;19924;-79
2022/03/12 09:15:51;;;;;;;;;;;;;;;18.43;43.79;101642.28;5105998;28;19995;-79
2022/03/12 09:18:17;;;;;;;;;;;;;;;18.29;43.70;101637.84;5101812;28;19923;-79
2022/03/12 09:20:46;;;;;;;;;;;;;;;18.15;44.10;101636.00;5102814;28;19924;-79
2022/03/12 09:23:12;;;;;;;;;;;;;;;18.05;44.17;101638.50;5100330;28;19916;-78
2022/03/12 09:25:38;;;;;;;;;;;;;;;17.90;44.57;101650.50;5103772;28;19916;-77
2022/03/12 09:28:03;;;;;;;;;;;;;;;17.55;45.17;101644.88;5105424;28;19919;-79
2022/03/12 09:30:28;;;;;;;;;;;;;;;17.09;45.77;101643.41;5104524;27;19919;-79
2022/03/12 09:32:54;;;;;;;;;;;;;;;16.97;45.90;101644.09;5099270;28;19974;-79
2022/03/12 09:35:19;;;;;;;;;;;;;;;16.73;46.92;101646.34;5104068;27;19924;-78
2022/03/12 09:37:45;;;;;;;;;;;;;;;16.76;46.60;101649.00;5100308;28;21447;-78
2022/03/12 09:40:11;;;;;;;;;;;;;;;16.63;47.05;101651.38;5100121;27;20077;-78
2022/03/12 09:42:36;;;;;;;;;;;;;;;16.48;47.26;101656.31;5103524;28;20490;-78
2022/03/12 09:45:03;;;;;;;;;;;;;;;16.38;47.01;101651.81;5103984;28;20005;-77
2022/03/12 09:47:28;;;;;;;;;;;;;;;16.69;46.65;101650.59;5105769;27;19935;-78
2022/03/12 09:49:53;;;;;;;;;;;;;;;17.29;45.39;101652.34;5105952;28;20586;-78
2022/03/12 09:52:19;;;;;;;;;;;;;;;17.79;44.40;101635.63;5102082;28;20374;-78
2022/03/12 09:54:44;;;;;;;;;;;;;;;17.82;43.29;101644.31;5100962;28;20314;-79
2022/03/12 09:57:09;;;;;;;;;;;;;;;17.82;43.31;101648.66;5107348;28;20065;-77
2022/03/12 09:59:35;;;;;;;;;;;;;;;17.70;42.49;101642.44;5104203;28;19923;-78
2022/03/12 10:02:01;;;;;;;;;;;;;;;17.52;43.00;101654.34;5104402;28;19920;-80
2022/03/12 10:04:26;;;;;;;;;;;;;;;16.98;43.77;101664.03;5098281;28;19920;-77
2022/03/12 10:06:51;;;;;;;;;;;;;;;16.41;44.86;101666.56;5098810;28;19923;-79
2022/03/12 10:09:17;;;;;;;;;;;;;;;16.30;45.67;101672.44;5098595;28;19924;-80
2022/03/12 10:11:43;;;;;;;;;;;;;;;16.44;45.29;101666.59;5095085;28;19919;-78
2022/03/12 10:14:08;;;;;;;;;;;;;;;16.98;44.43;101668.34;5103141;28;20022;-77
2022/03/12 10:16:33;;;;;;;;;;;;;;;17.58;42.85;101662.22;5102260;28;19935;-77
2022/03/12 10:18:59;;;;;;;;;;;;;;;17.65;41.78;101672.75;5101636;28;19920;-77
2022/03/12 10:21:25;;;;;;;;;;;;;;;17.66;42.16;101666.69;5103973;28;20029;-78
2022/03/12 10:23:50;;;;;;;;;;;;;;;17.75;41.68;101681.53;5103072;28;19920;-78
2022/03/12 10:26:16;;;;;;;;;;;;;;;17.86;41.53;101666.94;5102843;28;20346;-78
2022/03/12 10:28:41;;;;;;;;;;;;;;;17.80;41.88;101660.78;5104336;28;19951;-77
2022/03/12 10:31:07;;;;;;;;;;;;;;;17.87;41.40;101670.41;5101017;28;20362;-79
2022/03/12 10:33:33;;;;;;;;;;;;;;;18.15;41.75;101663.75;5102528;28;19950;-77
2022/03/12 10:36:11;;;;;;;;;;;;;;;19.13;39.55;101660.19;5104374;28;20594;-80
2022/03/12 10:38:47;;;;;;;;;;;;;;;19.62;38.49;101663.06;5103003;28;19961;-79
2022/03/12 10:41:12;;;;;;;;;;;;;;;19.48;38.10;101667.31;5104005;28;20399;-82
2022/03/12 10:43:56;;;;;;;;;;;;;;;19.08;38.74;101674.06;5105373;28;19974;-81
2022/03/12 10:46:23;;;;;;;;;;;;;;;19.29;38.33;101666.34;5102844;27;19923;-78
2022/03/12 10:48:58;;;;;;;;;;;;;;;19.63;37.93;101670.00;5101933;28;19981;-79
2022/03/12 10:51:25;;;;;;;;;;;;;;;20.47;36.79;101669.34;5104213;28;19924;-79
2022/03/12 10:53:51;;;;;;;;;;;;;;;20.79;35.15;101672.78;5105087;28;20011;-81
2022/03/12 10:56:18;;;;;;;;;;;;;;;21.49;34.75;101666.53;5110671;28;20113;-80
2022/03/12 10:58:44;;;;;;;;;;;;;;;22.58;32.66;101652.75;5105910;27;19931;-80
2022/03/12 11:01:09;;;;;;;;;;;;;;;22.72;32.87;101664.84;5111856;28;19916;-79
2022/03/12 11:03:36;;;;;;;;;;;;;;;23.43;31.95;101654.47;5121430;27;19923;-77
2022/03/12 11:06:04;;;;;;;;;;;;;;;23.87;30.29;101657.44;5120879;28;20488;-79
2022/03/12 11:08:30;;;;;;;;;;;;;;;24.28;30.49;101662.06;5105161;28;19919;-77
2022/03/12 11:11:00;;;;;;;;;;;;;;;24.16;29.67;101660.50;5107548;28;19915;-77
2022/03/12 11:13:38;;;;;;;;;;;;;;;24.00;30.20;101670.34;5105338;28;19926;-78
2022/03/12 11:16:05;;;;;;;;;;;;;;;23.93;30.39;101666.09;5107346;28;19924;-77
2022/03/12 11:18:31;;;;;;;;;;;;;;;24.19;30.72;101667.44;5105472;28;20004;-77
2022/03/12 11:20:57;;;;;;;;;;;;;;;24.28;29.36;101669.94;5101750;27;20004;-78
2022/03/12 11:23:27;;;;;;;;;;;;;;;24.39;29.25;101664.50;5104826;28;20428;-77
2022/03/12 11:25:58;;;;;;;;;;;;;;;23.61;29.27;101674.38;5100910;28;19928;-78
2022/03/12 11:28:23;;;;;;;;;;;;;;;23.38;30.43;101668.53;5104059;27;19935;-76
2022/03/12 11:30:49;;;;;;;;;;;;;;;22.69;30.34;101666.59;5103890;28;19924;-77
2022/03/12 11:33:15;;;;;;;;;;;;;;;22.26;32.19;101659.09;5106734;27;19920;-77
2022/03/12 11:35:45;;;;;;;;;;;;;;;23.16;30.57;101658.28;5102406;28;19920;-77
2022/03/12 11:38:17;;;;;;;;;;;;;;;23.28;30.17;101665.16;5104779;28;19920;-77
2022/03/12 11:40:44;;;;;;;;;;;;;;;23.18;30.86;101655.66;5100059;28;20033;-77
2022/03/12 11:43:22;;;;;;;;;;;;;;;22.67;30.99;101657.91;5101437;28;19926;-74
2022/03/12 11:45:48;;;;;;;;;;;;;;;22.48;31.35;101655.44;5099077;28;19915;-76
2022/03/12 11:48:13;;;;;;;;;;;;;;;22.75;30.70;101648.19;5100929;28;20447;-75
2022/03/12 11:50:38;;;;;;;;;;;;;;;22.99;30.80;101655.88;5102879;28;19924;-76
2022/03/12 11:53:04;;;;;;;;;;;;;;;23.26;30.15;101659.06;5098894;28;19924;-77
2022/03/12 11:55:30;;;;;;;;;;;;;;;23.20;30.56;101659.13;5101102;28;20030;-77
2022/03/12 11:57:57;;;;;;;;;;;;;;;23.33;29.36;101660.72;5101320;28;20503;-76
2022/03/12 12:00:24;;;;;;;;;;;;;;;22.93;29.66;101655.03;5101295;28;20026;-77
2022/03/12 12:02:52;;;;;;;;;;;;;;;23.40;29.35;101658.88;5098125;28;20396;-77
2022/03/12 12:05:17;;;;;;;;;;;;;;;23.86;29.86;101655.69;5102453;28;20073;-76
2022/03/12 12:07:45;;;;;;;;;;;;;;;24.46;27.97;101651.28;5104576;28;21286;-77
2022/03/12 12:10:12;;;;;;;;;;;;;;;25.31;28.04;101647.94;5104695;28;19916;-77
2022/03/12 12:12:37;;;;;;;;;;;;;;;25.84;26.23;101632.75;5101947;28;20006;-78
2022/03/12 12:15:07;;;;;;;;;;;;;;;25.54;26.45;101640.44;5098953;28;20038;-77
2022/03/12 12:17:32;;;;;;;;;;;;;;;25.77;26.16;101631.16;5103421;28;19923;-75
2022/03/12 12:19:58;;;;;;;;;;;;;;;26.82;25.90;101630.34;5104231;27;20239;-77
2022/03/12 12:22:24;;;;;;;;;;;;;;;26.95;24.50;101627.31;5100673;28;19916;-77
2022/03/12 12:24:53;;;;;;;;;;;;;;;26.61;23.88;101624.72;5100339;28;19923;-76
2022/03/12 12:27:23;;;;;;;;;;;;;;;26.21;24.39;101624.84;5095138;28;20247;-77
2022/03/12 12:29:55;;;;;;;;;;;;;;;26.03;25.10;101623.53;5101500;28;20401;-78
2022/03/12 12:32:21;;;;;;;;;;;;;;;25.96;24.46;101621.06;5091781;27;19931;-77
2022/03/12 12:35:01;;;;;;;;;;;;;;;25.41;25.79;101620.50;5095748;28;20495;-77
2022/03/12 12:37:41;;;;;;;;;;;;;;;25.37;25.78;101613.59;5097147;28;19975;-77
2022/03/12 12:40:13;;;;;;;;;;;;;;;25.02;25.97;101630.94;5097863;28;19934;-76
2022/03/12 12:42:42;;;;;;;;;;;;;;;24.96;26.29;101620.53;5096959;28;19916;-78
2022/03/12 12:45:12;;;;;;;;;;;;;;;25.34;26.31;101618.91;5096373;28;20034;-78